createdAt,value
2023-03-16T00:00:58.476Z,6.22
2023-03-16T00:03:30.448Z,6.18
2023-03-16T00:06:25.580Z,6.07
2023-03-16T00:08:59.020Z,5.90
2023-03-16T00:11:27.023Z,6.25
2023-03-16T00:13:54.743Z,6.30
2023-03-16T00:16:22.419Z,6.10
2023-03-16T00:18:50.222Z,6.63
2023-03-16T00:21:18.255Z,6.63
2023-03-16T00:23:45.965Z,6.18
2023-03-16T00:26:15.228Z,6.53
2023-03-16T00:28:42.854Z,6.83
2023-03-16T00:31:14.757Z,6.88
2023-03-16T00:33:44.482Z,6.60
2023-03-16T00:36:13.271Z,6.28
2023-03-16T00:38:45.123Z,6.47
2023-03-16T00:41:14.365Z,6.63
2023-03-16T00:43:45.390Z,6.47
2023-03-16T00:46:14.969Z,6.82
2023-03-16T00:48:44.697Z,6.85
2023-03-16T00:51:14.867Z,6.60
2023-03-16T00:53:44.890Z,7.03
2023-03-16T00:56:13.868Z,6.78
2023-03-16T00:58:44.571Z,6.55
2023-03-16T01:01:14.883Z,6.70
2023-03-16T01:03:42.729Z,6.72
2023-03-16T01:06:13.381Z,7.28
2023-03-16T01:08:42.202Z,7.15
2023-03-16T01:11:11.753Z,7.03
2023-03-16T01:13:40.575Z,7.68
2023-03-16T01:16:11.280Z,7.55
2023-03-16T01:18:39.464Z,8.18
2023-03-16T01:21:09.334Z,7.88
2023-03-16T01:23:38.791Z,8.20
2023-03-16T01:26:08.370Z,8.55
2023-03-16T01:28:36.389Z,8.07
2023-03-16T01:31:11.597Z,8.18
2023-03-16T01:33:39.876Z,7.80
2023-03-16T01:36:11.039Z,7.88
2023-03-16T01:38:38.765Z,8.00
2023-03-16T01:41:07.162Z,8.00
2023-03-16T01:43:37.586Z,8.63
2023-03-16T01:46:25.964Z,8.82
2023-03-16T01:49:04.560Z,7.88
2023-03-16T01:51:37.502Z,8.48
2023-03-16T01:54:14.556Z,7.93
2023-03-16T01:56:46.712Z,7.75
2023-03-16T01:59:19.949Z,8.43
2023-03-16T02:01:51.734Z,9.20
2023-03-16T02:04:27.859Z,8.60
2023-03-16T02:06:57.589Z,8.30
2023-03-16T02:09:26.375Z,8.18
2023-03-16T02:11:55.312Z,7.60
2023-03-16T02:14:24.961Z,7.80
2023-03-16T02:16:56.037Z,7.80
2023-03-16T02:19:33.720Z,8.40
2023-03-16T02:22:05.023Z,8.55
2023-03-16T02:24:32.795Z,8.38
2023-03-16T02:27:04.535Z,8.18
2023-03-16T02:29:54.079Z,7.70
2023-03-16T02:32:23.747Z,7.43
2023-03-16T02:34:51.842Z,7.90
2023-03-16T02:37:19.804Z,8.48
2023-03-16T02:39:47.518Z,8.00
2023-03-16T02:42:19.269Z,8.68
2023-03-16T02:44:51.468Z,8.73
2023-03-16T02:47:28.178Z,7.90
2023-03-16T02:49:55.828Z,8.63
2023-03-16T02:52:23.597Z,9.27
2023-03-16T02:54:51.349Z,10.45
2023-03-16T02:57:19.069Z,8.93
2023-03-16T02:59:48.162Z,10.00
2023-03-16T03:02:16.559Z,8.85
2023-03-16T03:04:46.384Z,7.80
2023-03-16T03:07:14.564Z,7.68
2023-03-16T03:09:43.132Z,7.68
2023-03-16T03:12:12.007Z,7.80
2023-03-16T03:14:40.131Z,8.27
2023-03-16T03:17:13.295Z,8.20
2023-03-16T03:19:41.653Z,8.60
2023-03-16T03:22:09.626Z,7.97
2023-03-16T03:24:37.695Z,8.20
2023-03-16T03:27:05.954Z,8.60
2023-03-16T03:29:35.280Z,9.10
2023-03-16T03:32:03.072Z,8.75
2023-03-16T03:34:32.609Z,8.80
2023-03-16T03:37:01.054Z,8.88
2023-03-16T03:39:28.853Z,8.85
2023-03-16T03:41:56.562Z,8.80
2023-03-16T03:44:25.376Z,9.30
2023-03-16T03:46:53.632Z,10.20
2023-03-16T03:49:21.268Z,9.63
2023-03-16T03:51:50.425Z,9.90
2023-03-16T03:54:18.418Z,10.40
2023-03-16T03:56:46.131Z,10.68
2023-03-16T03:59:13.848Z,10.25
2023-03-16T04:01:41.648Z,22.80
2023-03-16T04:04:09.448Z,14.23
2023-03-16T04:06:37.425Z,10.95
2023-03-16T04:09:06.815Z,9.50
2023-03-16T04:11:34.714Z,9.77
2023-03-16T04:14:02.351Z,9.50
2023-03-16T04:16:30.055Z,10.93
2023-03-16T04:18:58.835Z,11.50
2023-03-16T04:21:26.584Z,11.18
2023-03-16T04:23:54.776Z,12.05
2023-03-16T04:26:25.789Z,11.50
2023-03-16T04:28:53.676Z,10.77
2023-03-16T04:31:21.484Z,11.20
2023-03-16T04:33:49.524Z,11.57
2023-03-16T04:36:17.323Z,12.00
2023-03-16T04:38:45.260Z,11.70
2023-03-16T04:41:12.898Z,11.07
2023-03-16T04:43:43.195Z,12.57
2023-03-16T04:46:12.032Z,12.50
2023-03-16T04:48:39.787Z,13.02
2023-03-16T04:51:07.790Z,14.02
2023-03-16T04:53:35.578Z,14.90
2023-03-16T04:56:04.082Z,14.35
2023-03-16T04:58:31.888Z,13.55
2023-03-16T05:01:01.045Z,12.75
2023-03-16T05:03:28.896Z,12.55
2023-03-16T05:05:56.677Z,12.98
2023-03-16T05:08:24.475Z,12.57
2023-03-16T05:10:52.117Z,13.32
2023-03-16T05:13:19.879Z,13.73
2023-03-16T05:15:47.561Z,15.30
2023-03-16T05:18:17.018Z,15.88
2023-03-16T05:20:45.476Z,14.80
2023-03-16T05:23:13.404Z,14.90
2023-03-16T05:25:41.379Z,15.47
2023-03-16T05:28:09.249Z,15.70
2023-03-16T05:30:37.954Z,15.05
2023-03-16T05:33:05.886Z,15.52
2023-03-16T05:35:35.083Z,15.47
2023-03-16T05:38:02.795Z,15.82
2023-03-16T05:40:30.881Z,16.13
2023-03-16T05:43:00.298Z,15.02
2023-03-16T05:45:28.447Z,16.87
2023-03-16T05:47:56.138Z,16.38
2023-03-16T05:50:24.221Z,16.40
2023-03-16T05:52:54.212Z,19.73
2023-03-16T05:55:22.079Z,18.25
2023-03-16T05:57:49.802Z,17.38
2023-03-16T06:00:19.734Z,16.38
2023-03-16T06:02:49.002Z,17.77
2023-03-16T06:05:17.280Z,17.80
2023-03-16T06:07:45.489Z,17.42
2023-03-16T06:10:14.734Z,17.33
2023-03-16T06:12:42.660Z,18.50
2023-03-16T06:15:11.336Z,18.90
2023-03-16T06:17:40.177Z,19.70
2023-03-16T06:20:11.224Z,20.13
2023-03-16T06:22:39.415Z,18.95
2023-03-16T06:25:09.750Z,18.65
2023-03-16T06:27:40.101Z,18.67
2023-03-16T06:30:11.044Z,18.05
2023-03-16T06:32:41.935Z,17.98
2023-03-16T06:35:11.312Z,17.58
2023-03-16T06:37:39.033Z,16.90
2023-03-16T06:40:08.542Z,17.30
2023-03-16T06:42:36.415Z,16.67
2023-03-16T06:45:06.296Z,16.88
2023-03-16T06:47:34.037Z,16.65
2023-03-16T06:50:01.670Z,17.63
2023-03-16T06:52:29.562Z,17.77
2023-03-16T06:54:58.470Z,17.27
2023-03-16T06:57:26.308Z,17.30
2023-03-16T06:59:54.102Z,17.15
2023-03-16T07:02:23.835Z,16.67
2023-03-16T07:04:51.604Z,16.13
2023-03-16T07:07:19.395Z,16.73
2023-03-16T07:09:47.287Z,17.08
2023-03-16T07:12:15.309Z,15.98
2023-03-16T07:14:43.056Z,16.67
2023-03-16T07:17:11.327Z,16.83
2023-03-16T07:19:40.355Z,16.70
2023-03-16T07:22:08.081Z,16.80
2023-03-16T07:24:35.823Z,17.42
2023-03-16T07:27:03.606Z,17.35
2023-03-16T07:29:31.431Z,17.10
2023-03-16T07:31:59.141Z,18.23
2023-03-16T07:34:26.882Z,17.48
2023-03-16T07:36:55.921Z,17.60
2023-03-16T07:39:23.911Z,18.60
2023-03-16T07:41:51.538Z,17.58
2023-03-16T07:44:19.346Z,17.73
2023-03-16T07:46:47.032Z,17.40
2023-03-16T07:49:16.722Z,17.00
2023-03-16T07:51:44.498Z,16.38
2023-03-16T07:54:14.539Z,16.25
2023-03-16T07:56:48.783Z,15.27
2023-03-16T07:59:19.200Z,14.30
2023-03-16T08:01:51.441Z,13.10
2023-03-16T08:04:19.206Z,12.93
2023-03-16T08:06:47.800Z,12.98
2023-03-16T08:09:17.072Z,12.45
2023-03-16T08:11:45.792Z,12.18
2023-03-16T08:14:13.662Z,11.65
2023-03-16T08:16:41.335Z,12.10
2023-03-16T08:19:09.414Z,11.73
2023-03-16T08:21:53.132Z,11.55
2023-03-16T08:24:27.157Z,12.27
2023-03-16T08:26:55.056Z,12.25
2023-03-16T08:29:23.183Z,12.02
2023-03-16T08:31:50.811Z,11.55
2023-03-16T08:34:18.787Z,11.53
2023-03-16T08:36:46.428Z,11.75
2023-03-16T08:39:14.985Z,11.32
2023-03-16T08:41:46.191Z,11.10
2023-03-16T08:44:14.190Z,11.45
2023-03-16T08:46:42.346Z,11.50
2023-03-16T08:49:10.861Z,11.20
2023-03-16T08:51:38.701Z,11.27
2023-03-16T08:54:07.472Z,11.38
2023-03-16T08:56:35.303Z,11.43
2023-03-16T08:59:04.428Z,10.77
2023-03-16T09:01:32.418Z,10.70
2023-03-16T09:04:00.578Z,10.77
2023-03-16T09:06:28.830Z,10.80
2023-03-16T09:08:57.254Z,11.48
2023-03-16T09:11:28.286Z,11.68
2023-03-16T09:13:55.957Z,11.23
2023-03-16T09:16:25.645Z,11.27
2023-03-16T09:18:53.552Z,10.95
2023-03-16T09:21:21.411Z,11.15
2023-03-16T09:23:49.156Z,11.00
2023-03-16T09:26:16.847Z,10.80
2023-03-16T09:28:44.725Z,10.57
2023-03-16T09:31:18.351Z,10.70
2023-03-16T09:33:48.370Z,11.20
2023-03-16T09:36:17.688Z,9.80
2023-03-16T09:38:45.732Z,9.90
2023-03-16T09:41:30.496Z,9.50
2023-03-16T09:44:06.552Z,10.35
2023-03-16T09:46:40.569Z,10.20
2023-03-16T09:49:12.187Z,9.73
2023-03-16T09:51:48.902Z,9.60
2023-03-16T09:54:27.633Z,10.13
2023-03-16T09:56:56.825Z,10.07
2023-03-16T09:59:27.253Z,9.03
2023-03-16T10:02:06.884Z,8.23
2023-03-16T10:04:46.283Z,8.63
2023-03-16T10:07:26.598Z,9.10
2023-03-16T10:09:58.949Z,8.40
2023-03-16T10:12:32.861Z,9.02
2023-03-16T10:15:09.247Z,8.87
2023-03-16T10:17:41.201Z,8.15
2023-03-16T10:20:17.725Z,7.85
2023-03-16T10:22:47.898Z,7.97
2023-03-16T10:25:23.327Z,8.18
2023-03-16T10:27:51.571Z,7.55
2023-03-16T10:30:24.797Z,8.07
2023-03-16T10:32:53.507Z,8.02
2023-03-16T10:35:36.100Z,7.63
2023-03-16T10:38:03.970Z,7.77
2023-03-16T10:40:33.702Z,8.20
2023-03-16T10:43:08.678Z,8.70
2023-03-16T10:45:38.246Z,8.18
2023-03-16T10:48:14.132Z,7.93
2023-03-16T10:50:51.981Z,8.00
2023-03-16T10:53:23.706Z,8.07
2023-03-16T10:55:51.561Z,8.10
2023-03-16T10:58:29.649Z,8.63
2023-03-16T11:00:58.681Z,8.07
2023-03-16T11:03:29.094Z,7.10
2023-03-16T11:06:03.174Z,7.25
2023-03-16T11:08:34.958Z,6.93
2023-03-16T11:11:11.889Z,6.57
2023-03-16T11:13:45.613Z,6.68
2023-03-16T11:16:24.286Z,6.95
2023-03-16T11:18:55.626Z,7.53
2023-03-16T11:21:36.217Z,7.77
2023-03-16T11:24:06.881Z,7.18
2023-03-16T11:26:36.921Z,7.60
2023-03-16T11:29:13.304Z,7.50
2023-03-16T11:31:43.477Z,7.78
2023-03-16T11:34:17.879Z,7.18
2023-03-16T11:36:53.375Z,7.30
2023-03-16T11:39:32.859Z,6.70
2023-03-16T11:42:14.758Z,7.22
2023-03-16T11:44:50.451Z,7.50
2023-03-16T11:47:52.794Z,7.15
2023-03-16T11:50:25.403Z,6.75
2023-03-16T11:53:01.248Z,6.20
2023-03-16T11:55:39.182Z,5.93
2023-03-16T11:58:28.213Z,5.90
2023-03-16T12:01:09.357Z,6.35
2023-03-16T12:03:53.775Z,6.43
2023-03-16T12:06:31.740Z,5.60
2023-03-16T12:09:23.810Z,5.50
2023-03-16T12:11:58.012Z,5.82
2023-03-16T12:14:28.813Z,6.50
2023-03-16T12:17:04.073Z,6.40
2023-03-16T12:19:42.544Z,5.88
2023-03-16T12:22:18.741Z,6.03
2023-03-16T12:24:48.132Z,5.80
2023-03-16T12:27:18.992Z,5.53
2023-03-16T12:29:58.405Z,5.57
2023-03-16T12:32:36.415Z,6.00
2023-03-16T12:35:20.118Z,5.63
2023-03-16T12:37:57.603Z,5.80
2023-03-16T12:40:39.535Z,5.25
2023-03-16T12:43:19.482Z,5.07
2023-03-16T12:45:58.483Z,5.37
2023-03-16T12:48:30.232Z,5.20
2023-03-16T12:51:00.872Z,5.47
2023-03-16T12:53:47.256Z,5.70
2023-03-16T12:56:18.630Z,5.60
2023-03-16T12:58:49.266Z,5.20
2023-03-16T13:01:19.937Z,5.55
2023-03-16T13:03:50.394Z,5.32
2023-03-16T13:06:20.758Z,5.15
2023-03-16T13:08:53.969Z,5.88
2023-03-16T13:11:23.256Z,5.78
2023-03-16T13:13:55.237Z,5.20
2023-03-16T13:16:29.055Z,4.90
2023-03-16T13:18:57.508Z,5.25
2023-03-16T13:21:37.230Z,5.85
2023-03-16T13:24:26.699Z,5.88
2023-03-16T13:27:03.384Z,5.70
2023-03-16T13:29:33.460Z,5.05
2023-03-16T13:32:03.907Z,5.32
2023-03-16T13:34:33.748Z,4.95
2023-03-16T13:37:02.547Z,5.40
2023-03-16T13:39:31.961Z,5.20
2023-03-16T13:42:04.818Z,5.00
2023-03-16T13:44:33.588Z,4.97
2023-03-16T13:47:05.051Z,4.75
2023-03-16T13:49:32.742Z,3.65
2023-03-16T13:52:00.545Z,3.85
2023-03-16T13:54:30.745Z,3.60
2023-03-16T13:57:00.502Z,3.10
2023-03-16T13:59:30.318Z,3.22
2023-03-16T14:02:00.185Z,3.67
2023-03-16T14:04:30.784Z,4.75
2023-03-16T14:07:00.319Z,3.92
2023-03-16T14:09:30.586Z,3.35
2023-03-16T14:11:58.704Z,2.60
2023-03-16T14:14:31.127Z,2.47
2023-03-16T14:17:05.458Z,2.63
2023-03-16T14:19:42.517Z,2.50
2023-03-16T14:22:19.146Z,2.40
2023-03-16T14:24:54.582Z,2.70
2023-03-16T14:27:29.751Z,2.53
2023-03-16T14:30:05.525Z,2.50
2023-03-16T14:32:34.248Z,2.80
2023-03-16T14:35:12.939Z,2.83
2023-03-16T14:37:41.848Z,2.90
2023-03-16T14:40:24.251Z,3.13
2023-03-16T14:42:52.736Z,8.52
2023-03-16T14:45:22.869Z,3.80
2023-03-16T14:47:53.646Z,3.60
2023-03-16T14:50:25.144Z,3.93
2023-03-16T14:52:55.899Z,3.42
2023-03-16T14:55:24.996Z,3.13
2023-03-16T14:57:53.170Z,2.90
2023-03-16T15:00:23.260Z,2.75
2023-03-16T15:03:03.037Z,2.88
2023-03-16T15:05:36.336Z,2.83
2023-03-16T15:08:04.731Z,3.00
2023-03-16T15:10:35.242Z,2.80
2023-03-16T15:13:13.021Z,3.08
2023-03-16T15:15:42.904Z,3.40
2023-03-16T15:18:11.074Z,3.10
2023-03-16T15:20:42.288Z,3.40
2023-03-16T15:23:15.784Z,3.10
2023-03-16T15:25:44.874Z,3.42
2023-03-16T15:28:17.327Z,4.00
2023-03-16T15:30:49.526Z,3.53
2023-03-16T15:33:17.863Z,3.10
2023-03-16T15:35:47.715Z,3.00
2023-03-16T15:38:17.867Z,2.88
2023-03-16T15:40:47.964Z,2.70
2023-03-16T15:43:18.208Z,3.00
2023-03-16T15:45:48.640Z,3.60
2023-03-16T15:48:16.948Z,2.90
2023-03-16T15:50:48.414Z,3.13
2023-03-16T15:53:30.206Z,2.80
2023-03-16T15:56:03.014Z,3.17
2023-03-16T15:58:32.682Z,2.83
2023-03-16T16:01:03.804Z,2.85
2023-03-16T16:03:31.886Z,2.90
2023-03-16T16:05:59.672Z,2.60
2023-03-16T16:08:27.734Z,2.63
2023-03-16T16:10:57.044Z,2.53
2023-03-16T16:13:37.332Z,2.60
2023-03-16T16:16:13.907Z,2.80
2023-03-16T16:18:42.371Z,2.60
2023-03-16T16:21:17.124Z,2.85
2023-03-16T16:23:44.993Z,2.78
2023-03-16T16:26:26.307Z,2.72
2023-03-16T16:28:58.454Z,2.83
2023-03-16T16:31:29.999Z,2.50
2023-03-16T16:33:58.979Z,2.80
2023-03-16T16:36:27.808Z,2.72
2023-03-16T16:38:57.013Z,2.65
2023-03-16T16:41:28.542Z,2.70
2023-03-16T16:43:57.416Z,2.30
2023-03-16T16:46:28.489Z,2.40
2023-03-16T16:49:01.666Z,2.90
2023-03-16T16:51:30.738Z,3.90
2023-03-16T16:54:00.435Z,4.22
2023-03-16T16:56:30.659Z,3.35
2023-03-16T16:59:00.408Z,6.05
2023-03-16T17:01:33.008Z,8.30
2023-03-16T17:04:01.346Z,5.72
2023-03-16T17:06:29.624Z,7.40
2023-03-16T17:08:57.478Z,6.82
2023-03-16T17:11:26.991Z,5.97
2023-03-16T17:13:57.264Z,4.50
2023-03-16T17:16:27.484Z,4.10
2023-03-16T17:18:56.790Z,3.60
2023-03-16T17:21:26.797Z,3.70
2023-03-16T17:23:54.861Z,4.47
2023-03-16T17:26:25.296Z,12.98
2023-03-16T17:28:57.602Z,6.35
2023-03-16T17:31:27.806Z,9.30
2023-03-16T17:33:58.289Z,5.38
2023-03-16T17:36:26.611Z,4.10
2023-03-16T17:38:54.645Z,4.63
2023-03-16T17:41:24.674Z,4.80
2023-03-16T17:43:54.467Z,6.20
2023-03-16T17:46:25.082Z,13.20
2023-03-16T17:48:54.465Z,9.63
2023-03-16T17:51:26.234Z,9.05
2023-03-16T17:53:55.704Z,9.40
2023-03-16T17:56:25.579Z,10.40
2023-03-16T17:58:57.312Z,8.85
2023-03-16T18:01:29.064Z,10.00
2023-03-16T18:03:56.891Z,5.30
2023-03-16T18:06:27.592Z,4.40
2023-03-16T18:08:55.331Z,4.15
2023-03-16T18:11:26.254Z,4.03
2023-03-16T18:13:53.957Z,4.20
2023-03-16T18:16:28.062Z,4.10
2023-03-16T18:18:59.386Z,4.55
2023-03-16T18:21:28.744Z,4.30
2023-03-16T18:23:57.028Z,8.50
2023-03-16T18:26:24.811Z,16.73
2023-03-16T18:28:53.400Z,6.60
2023-03-16T18:31:23.765Z,6.88
2023-03-16T18:33:53.799Z,9.52
2023-03-16T18:36:27.515Z,9.00
2023-03-16T18:38:58.144Z,6.22
2023-03-16T18:41:27.488Z,4.50
2023-03-16T18:43:57.668Z,6.15
2023-03-16T18:46:27.400Z,7.37
2023-03-16T18:48:57.022Z,7.80
2023-03-16T18:51:25.513Z,8.95
2023-03-16T18:53:53.644Z,7.00
2023-03-16T18:56:24.832Z,5.82
2023-03-16T18:58:53.693Z,7.18
2023-03-16T19:01:27.669Z,9.07
2023-03-16T19:03:57.010Z,27.23
2023-03-16T19:06:29.505Z,17.35
2023-03-16T19:09:02.007Z,12.68
2023-03-16T19:11:31.410Z,6.93
2023-03-16T19:13:59.509Z,10.95
2023-03-16T19:16:27.206Z,9.20
2023-03-16T19:18:54.948Z,6.20
2023-03-16T19:21:23.921Z,4.80
2023-03-16T19:23:57.011Z,7.18
2023-03-16T19:26:25.469Z,5.70
2023-03-16T19:28:55.004Z,5.63
2023-03-16T19:31:24.943Z,5.53
2023-03-16T19:33:54.299Z,4.47
2023-03-16T19:36:24.790Z,4.53
2023-03-16T19:38:53.451Z,4.70
2023-03-16T19:41:24.868Z,4.97
2023-03-16T19:43:56.421Z,4.97
2023-03-16T19:46:26.036Z,4.97
2023-03-16T19:48:54.253Z,4.80
2023-03-16T19:51:22.459Z,5.28
2023-03-16T19:53:50.195Z,4.78
2023-03-16T19:56:21.996Z,4.53
2023-03-16T19:58:52.342Z,11.60
2023-03-16T20:01:24.543Z,16.25
2023-03-16T20:03:53.261Z,11.13
2023-03-16T20:06:23.178Z,8.95
2023-03-16T20:08:51.760Z,11.35
2023-03-16T20:11:26.138Z,66.13
2023-03-16T20:13:54.381Z,25.75
2023-03-16T20:16:28.416Z,20.88
2023-03-16T20:18:58.856Z,18.35
2023-03-16T20:21:27.431Z,11.75
2023-03-16T20:23:55.724Z,7.22
2023-03-16T20:26:27.007Z,8.27
2023-03-16T20:28:55.660Z,6.18
2023-03-16T20:31:27.142Z,9.60
2023-03-16T20:33:55.047Z,10.40
2023-03-16T20:36:23.946Z,7.70
2023-03-16T20:38:52.127Z,8.77
2023-03-16T20:41:26.355Z,10.60
2023-03-16T20:43:54.531Z,16.10
2023-03-16T20:46:27.343Z,7.18
2023-03-16T20:48:55.487Z,4.45
2023-03-16T20:51:23.421Z,14.27
2023-03-16T20:53:51.411Z,12.65
2023-03-16T20:56:21.882Z,5.05
2023-03-16T20:58:51.998Z,4.15
2023-03-16T21:01:22.377Z,4.63
2023-03-16T21:03:55.063Z,4.20
2023-03-16T21:06:25.266Z,4.18
2023-03-16T21:08:54.223Z,4.32
2023-03-16T21:11:24.686Z,5.68
2023-03-16T21:13:53.276Z,5.70
2023-03-16T21:16:22.250Z,6.60
2023-03-16T21:18:51.524Z,5.13
2023-03-16T21:21:21.267Z,5.70
2023-03-16T21:23:49.122Z,6.20
2023-03-16T21:26:19.453Z,7.93
2023-03-16T21:28:54.992Z,12.27
2023-03-16T21:31:23.148Z,44.58
2023-03-16T21:33:54.064Z,11.77
2023-03-16T21:36:24.572Z,13.75
2023-03-16T21:38:52.437Z,11.85
2023-03-16T21:41:21.026Z,6.72
2023-03-16T21:43:49.919Z,6.28
2023-03-16T21:46:20.915Z,17.40
2023-03-16T21:48:50.775Z,18.75
2023-03-16T21:51:24.812Z,11.50
2023-03-16T21:53:53.468Z,11.32
2023-03-16T21:56:23.766Z,9.32
2023-03-16T21:58:52.074Z,9.25
2023-03-16T22:01:24.716Z,15.65
2023-03-16T22:03:54.724Z,15.82
2023-03-16T22:06:25.557Z,24.30
2023-03-16T22:08:53.658Z,26.55
2023-03-16T22:11:23.428Z,15.38
2023-03-16T22:13:53.138Z,26.73
2023-03-16T22:16:23.386Z,22.00
2023-03-16T22:18:52.635Z,6.43
2023-03-16T22:21:34.204Z,8.95
2023-03-16T22:24:02.882Z,5.15
2023-03-16T22:26:31.012Z,5.40
2023-03-16T22:29:00.962Z,5.90
2023-03-16T22:31:33.546Z,14.98
2023-03-16T22:34:02.677Z,27.15
2023-03-16T22:36:33.154Z,19.00
2023-03-16T22:39:03.557Z,7.28
2023-03-16T22:41:31.810Z,11.70
2023-03-16T22:44:00.127Z,11.57
2023-03-16T22:46:29.310Z,10.40
2023-03-16T22:48:58.274Z,8.88
2023-03-16T22:51:30.281Z,8.13
2023-03-16T22:54:02.330Z,7.55
2023-03-16T22:56:31.304Z,12.37
2023-03-16T22:59:01.687Z,9.07
2023-03-16T23:01:34.048Z,7.75
2023-03-16T23:04:02.388Z,7.45
2023-03-16T23:06:32.456Z,7.63
2023-03-16T23:09:02.177Z,7.25
2023-03-16T23:11:32.141Z,7.82
2023-03-16T23:14:00.993Z,7.93
2023-03-16T23:16:32.250Z,8.30
2023-03-16T23:19:00.525Z,7.78
2023-03-16T23:21:30.152Z,8.73
2023-03-16T23:24:03.839Z,9.10
2023-03-16T23:26:33.365Z,9.30
2023-03-16T23:29:01.393Z,9.10
2023-03-16T23:31:30.138Z,9.70
2023-03-16T23:33:57.799Z,11.30
2023-03-16T23:36:26.248Z,13.32
2023-03-16T23:38:54.229Z,16.20
2023-03-16T23:41:24.300Z,9.48
2023-03-16T23:43:55.085Z,9.37
2023-03-16T23:46:25.300Z,8.25
2023-03-16T23:48:55.216Z,9.20
2023-03-16T23:51:26.521Z,6.47
2023-03-16T23:53:54.495Z,6.35
2023-03-16T23:56:23.107Z,6.65
2023-03-16T23:58:51.004Z,5.93
